sensor_id;sensor_type;location;lat;lon;timestamp;temperature;humidity
10536;DHT22;5316;49.538;8.352;2023-06-22T00:01:49;25.10;99.90
10536;DHT22;5316;49.538;8.352;2023-06-22T00:04:21;25.20;99.90
10536;DHT22;5316;49.538;8.352;2023-06-22T00:06:52;25.20;99.90
10536;DHT22;5316;49.538;8.352;2023-06-22T00:09:19;25.20;99.90
10536;DHT22;5316;49.538;8.352;2023-06-22T00:11:48;25.10;99.90
10536;DHT22;5316;49.538;8.352;2023-06-22T00:14:17;25.10;99.90
10536;DHT22;5316;49.538;8.352;2023-06-22T00:16:45;24.90;99.90
10536;DHT22;5316;49.538;8.352;2023-06-22T00:19:14;24.70;99.90
10536;DHT22;5316;49.538;8.352;2023-06-22T00:21:41;24.50;99.90
10536;DHT22;5316;49.538;8.352;2023-06-22T00:24:16;24.30;99.90
10536;DHT22;5316;49.538;8.352;2023-06-22T00:26:43;24.20;99.90
10536;DHT22;5316;49.538;8.352;2023-06-22T00:29:13;24.10;99.90
10536;DHT22;5316;49.538;8.352;2023-06-22T00:31:40;24.00;99.90
10536;DHT22;5316;49.538;8.352;2023-06-22T00:34:07;24.00;99.90
10536;DHT22;5316;49.538;8.352;2023-06-22T00:36:34;23.90;99.90
10536;DHT22;5316;49.538;8.352;2023-06-22T00:39:01;23.90;99.90
10536;DHT22;5316;49.538;8.352;2023-06-22T00:41:30;23.90;99.90
10536;DHT22;5316;49.538;8.352;2023-06-22T00:43:58;23.90;99.90
10536;DHT22;5316;49.538;8.352;2023-06-22T00:46:25;23.90;99.90
10536;DHT22;5316;49.538;8.352;2023-06-22T00:48:52;23.80;99.90
10536;DHT22;5316;49.538;8.352;2023-06-22T00:51:22;23.90;99.90
10536;DHT22;5316;49.538;8.352;2023-06-22T00:53:50;24.00;99.90
10536;DHT22;5316;49.538;8.352;2023-06-22T00:56:17;24.10;1.00
10536;DHT22;5316;49.538;8.352;2023-06-22T00:58:51;24.00;1.00
10536;DHT22;5316;49.538;8.352;2023-06-22T01:01:19;23.80;1.00
10536;DHT22;5316;49.538;8.352;2023-06-22T01:03:49;23.70;1.00
10536;DHT22;5316;49.538;8.352;2023-06-22T01:06:21;23.50;1.00
10536;DHT22;5316;49.538;8.352;2023-06-22T01:09:00;23.50;1.00
10536;DHT22;5316;49.538;8.352;2023-06-22T01:11:32;23.30;1.00
10536;DHT22;5316;49.538;8.352;2023-06-22T01:14:11;23.20;1.00
10536;DHT22;5316;49.538;8.352;2023-06-22T01:16:41;23.20;1.00
10536;DHT22;5316;49.538;8.352;2023-06-22T01:19:27;23.10;1.00
10536;DHT22;5316;49.538;8.352;2023-06-22T01:21:56;23.10;1.00
10536;DHT22;5316;49.538;8.352;2023-06-22T01:24:27;23.00;1.00
10536;DHT22;5316;49.538;8.352;2023-06-22T01:27:09;23.00;1.00
10536;DHT22;5316;49.538;8.352;2023-06-22T01:29:43;23.00;1.00
10536;DHT22;5316;49.538;8.352;2023-06-22T01:32:12;23.00;1.00
10536;DHT22;5316;49.538;8.352;2023-06-22T01:34:40;23.00;1.00
10536;DHT22;5316;49.538;8.352;2023-06-22T01:37:08;23.00;1.00
10536;DHT22;5316;49.538;8.352;2023-06-22T01:39:36;22.90;1.00
10536;DHT22;5316;49.538;8.352;2023-06-22T01:42:04;22.90;1.00
10536;DHT22;5316;49.538;8.352;2023-06-22T01:44:32;22.90;1.00
10536;DHT22;5316;49.538;8.352;2023-06-22T01:47:03;22.80;1.00
10536;DHT22;5316;49.538;8.352;2023-06-22T01:49:31;22.70;1.00
10536;DHT22;5316;49.538;8.352;2023-06-22T01:51:58;22.60;1.00
10536;DHT22;5316;49.538;8.352;2023-06-22T01:54:25;22.70;1.00
10536;DHT22;5316;49.538;8.352;2023-06-22T01:56:53;22.70;1.00
10536;DHT22;5316;49.538;8.352;2023-06-22T01:59:25;22.70;1.00
10536;DHT22;5316;49.538;8.352;2023-06-22T02:01:57;22.80;1.00
10536;DHT22;5316;49.538;8.352;2023-06-22T02:04:27;22.80;1.00
10536;DHT22;5316;49.538;8.352;2023-06-22T02:06:59;22.80;1.00
10536;DHT22;5316;49.538;8.352;2023-06-22T02:09:29;22.80;1.00
10536;DHT22;5316;49.538;8.352;2023-06-22T02:11:58;22.80;1.00
10536;DHT22;5316;49.538;8.352;2023-06-22T02:14:28;22.80;1.00
10536;DHT22;5316;49.538;8.352;2023-06-22T02:16:56;22.80;1.00
10536;DHT22;5316;49.538;8.352;2023-06-22T02:19:27;22.80;1.00
10536;DHT22;5316;49.538;8.352;2023-06-22T02:21:59;22.80;1.00
10536;DHT22;5316;49.538;8.352;2023-06-22T02:24:26;22.80;1.00
10536;DHT22;5316;49.538;8.352;2023-06-22T02:26:57;22.80;1.00
10536;DHT22;5316;49.538;8.352;2023-06-22T02:29:24;22.80;1.00
10536;DHT22;5316;49.538;8.352;2023-06-22T02:31:52;22.90;1.00
10536;DHT22;5316;49.538;8.352;2023-06-22T02:34:19;22.80;1.00
10536;DHT22;5316;49.538;8.352;2023-06-22T02:36:49;22.80;1.00
10536;DHT22;5316;49.538;8.352;2023-06-22T02:39:19;22.80;1.00
10536;DHT22;5316;49.538;8.352;2023-06-22T02:41:47;22.80;1.00
10536;DHT22;5316;49.538;8.352;2023-06-22T02:44:14;22.90;1.00
10536;DHT22;5316;49.538;8.352;2023-06-22T02:46:43;22.80;1.00
10536;DHT22;5316;49.538;8.352;2023-06-22T02:49:11;22.80;1.00
10536;DHT22;5316;49.538;8.352;2023-06-22T02:51:39;22.90;1.00
10536;DHT22;5316;49.538;8.352;2023-06-22T02:54:08;22.80;1.00
10536;DHT22;5316;49.538;8.352;2023-06-22T02:56:36;22.80;1.00
10536;DHT22;5316;49.538;8.352;2023-06-22T02:59:06;22.80;1.00
10536;DHT22;5316;49.538;8.352;2023-06-22T03:01:33;22.70;1.00
10536;DHT22;5316;49.538;8.352;2023-06-22T03:04:05;22.60;1.00
10536;DHT22;5316;49.538;8.352;2023-06-22T03:06:33;22.60;1.00
10536;DHT22;5316;49.538;8.352;2023-06-22T03:09:02;22.60;1.00
10536;DHT22;5316;49.538;8.352;2023-06-22T03:11:32;22.60;1.00
10536;DHT22;5316;49.538;8.352;2023-06-22T03:14:06;22.50;1.00
10536;DHT22;5316;49.538;8.352;2023-06-22T03:16:33;22.50;1.00
10536;DHT22;5316;49.538;8.352;2023-06-22T03:19:00;22.50;1.00
10536;DHT22;5316;49.538;8.352;2023-06-22T03:21:29;22.50;1.00
10536;DHT22;5316;49.538;8.352;2023-06-22T03:23:57;22.50;1.00
10536;DHT22;5316;49.538;8.352;2023-06-22T03:26:33;22.50;1.00
10536;DHT22;5316;49.538;8.352;2023-06-22T03:29:00;22.40;1.00
10536;DHT22;5316;49.538;8.352;2023-06-22T03:31:27;22.40;1.00
10536;DHT22;5316;49.538;8.352;2023-06-22T03:33:54;22.40;1.00
10536;DHT22;5316;49.538;8.352;2023-06-22T03:36:23;22.30;1.00
10536;DHT22;5316;49.538;8.352;2023-06-22T03:38:51;22.30;1.00
10536;DHT22;5316;49.538;8.352;2023-06-22T03:41:22;22.40;1.00
10536;DHT22;5316;49.538;8.352;2023-06-22T03:43:51;22.40;1.00
10536;DHT22;5316;49.538;8.352;2023-06-22T03:46:18;22.40;1.00
10536;DHT22;5316;49.538;8.352;2023-06-22T03:48:47;22.30;1.00
10536;DHT22;5316;49.538;8.352;2023-06-22T03:51:14;22.40;1.00
10536;DHT22;5316;49.538;8.352;2023-06-22T03:53:44;22.30;1.00
10536;DHT22;5316;49.538;8.352;2023-06-22T03:56:14;22.30;1.00
10536;DHT22;5316;49.538;8.352;2023-06-22T03:58:47;22.40;1.00
10536;DHT22;5316;49.538;8.352;2023-06-22T04:01:38;22.40;1.00
10536;DHT22;5316;49.538;8.352;2023-06-22T04:04:18;22.40;1.00
10536;DHT22;5316;49.538;8.352;2023-06-22T04:06:45;22.30;1.00
10536;DHT22;5316;49.538;8.352;2023-06-22T04:09:12;22.40;1.00
10536;DHT22;5316;49.538;8.352;2023-06-22T04:11:39;22.30;1.00
10536;DHT22;5316;49.538;8.352;2023-06-22T04:14:06;22.30;1.00
10536;DHT22;5316;49.538;8.352;2023-06-22T04:16:33;22.40;1.00
10536;DHT22;5316;49.538;8.352;2023-06-22T04:19:02;22.40;1.00
10536;DHT22;5316;49.538;8.352;2023-06-22T04:24:29;22.50;1.00
10536;DHT22;5316;49.538;8.352;2023-06-22T04:26:56;22.50;1.00
10536;DHT22;5316;49.538;8.352;2023-06-22T04:29:24;22.50;1.00
10536;DHT22;5316;49.538;8.352;2023-06-22T04:31:56;22.50;1.00
10536;DHT22;5316;49.538;8.352;2023-06-22T04:34:25;22.60;1.00
10536;DHT22;5316;49.538;8.352;2023-06-22T04:36:53;22.60;1.00
10536;DHT22;5316;49.538;8.352;2023-06-22T04:39:20;22.60;1.00
10536;DHT22;5316;49.538;8.352;2023-06-22T04:41:47;22.60;1.00
10536;DHT22;5316;49.538;8.352;2023-06-22T04:44:17;22.70;1.00
10536;DHT22;5316;49.538;8.352;2023-06-22T04:46:49;22.60;1.00
10536;DHT22;5316;49.538;8.352;2023-06-22T04:49:20;22.70;1.00
10536;DHT22;5316;49.538;8.352;2023-06-22T04:51:49;22.80;1.00
10536;DHT22;5316;49.538;8.352;2023-06-22T04:54:17;22.80;1.00
10536;DHT22;5316;49.538;8.352;2023-06-22T04:56:44;22.80;1.00
10536;DHT22;5316;49.538;8.352;2023-06-22T04:59:12;22.90;1.00
10536;DHT22;5316;49.538;8.352;2023-06-22T05:01:39;22.90;1.00
10536;DHT22;5316;49.538;8.352;2023-06-22T05:04:06;22.90;1.00
10536;DHT22;5316;49.538;8.352;2023-06-22T05:06:33;22.90;1.00
10536;DHT22;5316;49.538;8.352;2023-06-22T05:09:01;22.90;1.00
10536;DHT22;5316;49.538;8.352;2023-06-22T05:11:30;22.90;1.00
10536;DHT22;5316;49.538;8.352;2023-06-22T05:13:59;23.10;1.00
10536;DHT22;5316;49.538;8.352;2023-06-22T05:16:26;23.10;1.00
10536;DHT22;5316;49.538;8.352;2023-06-22T05:18:53;23.10;1.00
10536;DHT22;5316;49.538;8.352;2023-06-22T05:21:25;23.20;1.00
10536;DHT22;5316;49.538;8.352;2023-06-22T05:23:53;23.20;1.00
10536;DHT22;5316;49.538;8.352;2023-06-22T05:26:21;23.30;1.00
10536;DHT22;5316;49.538;8.352;2023-06-22T05:28:48;23.40;1.00
10536;DHT22;5316;49.538;8.352;2023-06-22T05:31:16;23.40;1.00
10536;DHT22;5316;49.538;8.352;2023-06-22T05:33:46;23.50;1.00
10536;DHT22;5316;49.538;8.352;2023-06-22T05:36:14;23.50;1.00
10536;DHT22;5316;49.538;8.352;2023-06-22T05:38:41;23.50;1.00
10536;DHT22;5316;49.538;8.352;2023-06-22T05:41:09;23.60;1.00
10536;DHT22;5316;49.538;8.352;2023-06-22T05:43:38;23.70;1.00
10536;DHT22;5316;49.538;8.352;2023-06-22T05:46:06;23.80;1.00
10536;DHT22;5316;49.538;8.352;2023-06-22T05:48:33;23.80;1.00
10536;DHT22;5316;49.538;8.352;2023-06-22T05:51:01;23.90;1.00
10536;DHT22;5316;49.538;8.352;2023-06-22T05:53:28;24.00;1.00
10536;DHT22;5316;49.538;8.352;2023-06-22T05:55:54;24.00;1.00
10536;DHT22;5316;49.538;8.352;2023-06-22T05:58:21;24.10;1.00
10536;DHT22;5316;49.538;8.352;2023-06-22T06:00:50;24.10;1.00
10536;DHT22;5316;49.538;8.352;2023-06-22T06:03:16;24.20;1.00
10536;DHT22;5316;49.538;8.352;2023-06-22T06:05:44;24.20;1.00
10536;DHT22;5316;49.538;8.352;2023-06-22T06:08:11;24.30;1.00
10536;DHT22;5316;49.538;8.352;2023-06-22T06:10:40;24.40;1.00
10536;DHT22;5316;49.538;8.352;2023-06-22T06:13:07;24.40;1.00
10536;DHT22;5316;49.538;8.352;2023-06-22T06:15:35;24.50;1.00
10536;DHT22;5316;49.538;8.352;2023-06-22T06:18:04;24.60;1.00
10536;DHT22;5316;49.538;8.352;2023-06-22T06:20:32;24.70;1.00
10536;DHT22;5316;49.538;8.352;2023-06-22T06:22:59;24.70;1.00
10536;DHT22;5316;49.538;8.352;2023-06-22T06:25:26;24.70;1.00
10536;DHT22;5316;49.538;8.352;2023-06-22T06:28:00;24.80;1.00
10536;DHT22;5316;49.538;8.352;2023-06-22T06:30:28;24.90;1.00
10536;DHT22;5316;49.538;8.352;2023-06-22T06:32:56;25.00;1.00
10536;DHT22;5316;49.538;8.352;2023-06-22T06:35:25;25.20;1.00
10536;DHT22;5316;49.538;8.352;2023-06-22T06:37:54;25.20;1.00
10536;DHT22;5316;49.538;8.352;2023-06-22T06:40:21;25.30;1.00
10536;DHT22;5316;49.538;8.352;2023-06-22T06:42:48;25.40;1.00
10536;DHT22;5316;49.538;8.352;2023-06-22T06:45:18;25.50;1.00
10536;DHT22;5316;49.538;8.352;2023-06-22T06:47:45;25.50;1.00
10536;DHT22;5316;49.538;8.352;2023-06-22T06:50:13;25.50;1.00
10536;DHT22;5316;49.538;8.352;2023-06-22T06:52:50;25.50;1.00
10536;DHT22;5316;49.538;8.352;2023-06-22T10:06:41;30.20;31.00
10536;DHT22;5316;49.538;8.352;2023-06-22T10:08:40;30.10;1.00
10536;DHT22;5316;49.538;8.352;2023-06-22T10:11:27;30.10;20.70
10536;DHT22;5316;49.538;8.352;2023-06-22T10:14:26;30.20;1.00
10536;DHT22;5316;49.538;8.352;2023-06-22T10:17:30;30.30;4.90
10536;DHT22;5316;49.538;8.352;2023-06-22T10:20:05;30.50;1.00
10536;DHT22;5316;49.538;8.352;2023-06-22T10:22:52;30.60;1.00
10536;DHT22;5316;49.538;8.352;2023-06-22T10:26:18;30.80;1.00
10536;DHT22;5316;49.538;8.352;2023-06-22T10:29:20;30.90;99.90
10536;DHT22;5316;49.538;8.352;2023-06-22T10:32:27;31.00;99.90
10536;DHT22;5316;49.538;8.352;2023-06-22T10:35:28;31.00;99.90
10536;DHT22;5316;49.538;8.352;2023-06-22T10:42:08;31.20;99.90
10536;DHT22;5316;49.538;8.352;2023-06-22T10:45:05;31.30;99.90
10536;DHT22;5316;49.538;8.352;2023-06-22T10:59:05;31.70;99.90
10536;DHT22;5316;49.538;8.352;2023-06-22T11:12:47;32.20;99.90
10536;DHT22;5316;49.538;8.352;2023-06-22T11:16:19;32.30;99.90
10536;DHT22;5316;49.538;8.352;2023-06-22T11:19:04;32.30;99.90
10536;DHT22;5316;49.538;8.352;2023-06-22T11:34:03;32.60;99.90
10536;DHT22;5316;49.538;8.352;2023-06-22T11:44:31;32.50;91.80
10536;DHT22;5316;49.538;8.352;2023-06-22T12:00:55;32.90;50.30
10536;DHT22;5316;49.538;8.352;2023-06-22T12:11:08;33.30;21.80
10536;DHT22;5316;49.538;8.352;2023-06-22T12:14:41;33.20;1.00
10536;DHT22;5316;49.538;8.352;2023-06-22T12:49:10;34.10;1.00
10536;DHT22;5316;49.538;8.352;2023-06-22T12:55:45;34.20;1.00
10536;DHT22;5316;49.538;8.352;2023-06-22T13:02:27;34.50;1.00
10536;DHT22;5316;49.538;8.352;2023-06-22T13:22:45;34.60;1.00
10536;DHT22;5316;49.538;8.352;2023-06-22T13:25:49;34.70;1.00
10536;DHT22;5316;49.538;8.352;2023-06-22T13:32:25;34.90;1.00
10536;DHT22;5316;49.538;8.352;2023-06-22T13:35:36;35.10;1.00
10536;DHT22;5316;49.538;8.352;2023-06-22T13:45:42;36.00;99.90
10536;DHT22;5316;49.538;8.352;2023-06-22T13:51:46;36.60;99.90
10536;DHT22;5316;49.538;8.352;2023-06-22T13:54:55;36.80;99.90
10536;DHT22;5316;49.538;8.352;2023-06-22T14:08:29;36.90;99.90
10536;DHT22;5316;49.538;8.352;2023-06-22T14:11:44;36.60;99.90
10536;DHT22;5316;49.538;8.352;2023-06-22T14:14:53;36.20;99.90
10536;DHT22;5316;49.538;8.352;2023-06-22T14:21:05;35.00;99.90
10536;DHT22;5316;49.538;8.352;2023-06-22T14:24:05;34.70;99.90
10536;DHT22;5316;49.538;8.352;2023-06-22T14:27:14;34.20;1.00
10536;DHT22;5316;49.538;8.352;2023-06-22T14:30:15;33.80;1.00
10536;DHT22;5316;49.538;8.352;2023-06-22T14:33:06;33.50;1.00
10536;DHT22;5316;49.538;8.352;2023-06-22T14:35:53;33.40;1.00
10536;DHT22;5316;49.538;8.352;2023-06-22T14:38:52;33.50;1.00
10536;DHT22;5316;49.538;8.352;2023-06-22T14:41:59;33.50;1.00
10536;DHT22;5316;49.538;8.352;2023-06-22T14:44:38;33.60;1.00
10536;DHT22;5316;49.538;8.352;2023-06-22T14:47:44;33.80;1.00
10536;DHT22;5316;49.538;8.352;2023-06-22T14:50:43;34.00;1.00
10536;DHT22;5316;49.538;8.352;2023-06-22T15:01:36;34.10;1.00
10536;DHT22;5316;49.538;8.352;2023-06-22T15:04:13;34.10;1.00
10536;DHT22;5316;49.538;8.352;2023-06-22T15:14:52;34.00;1.00
10536;DHT22;5316;49.538;8.352;2023-06-22T15:21:59;34.70;1.00
10536;DHT22;5316;49.538;8.352;2023-06-22T15:25:13;35.00;1.00
10536;DHT22;5316;49.538;8.352;2023-06-22T15:31:48;34.10;1.00
10536;DHT22;5316;49.538;8.352;2023-06-22T15:49:33;32.80;22.30
10536;DHT22;5316;49.538;8.352;2023-06-22T15:59:30;31.10;99.90
10536;DHT22;5316;49.538;8.352;2023-06-22T16:03:02;31.00;99.90
10536;DHT22;5316;49.538;8.352;2023-06-22T16:19:33;32.90;1.00
10536;DHT22;5316;49.538;8.352;2023-06-22T16:22:16;32.60;1.00
10536;DHT22;5316;49.538;8.352;2023-06-22T16:25:07;32.30;1.00
10536;DHT22;5316;49.538;8.352;2023-06-22T16:28:04;31.90;99.10
10536;DHT22;5316;49.538;8.352;2023-06-22T16:34:40;31.30;1.00
10536;DHT22;5316;49.538;8.352;2023-06-22T16:37:27;31.00;99.90
10536;DHT22;5316;49.538;8.352;2023-06-22T16:40:14;30.50;76.20
10536;DHT22;5316;49.538;8.352;2023-06-22T16:43:00;29.60;99.90
10536;DHT22;5316;49.538;8.352;2023-06-22T16:46:05;28.80;1.00
10536;DHT22;5316;49.538;8.352;2023-06-22T16:49:06;28.20;1.00
10536;DHT22;5316;49.538;8.352;2023-06-22T16:55:23;27.70;99.90
10536;DHT22;5316;49.538;8.352;2023-06-22T16:58:14;27.70;1.00
10536;DHT22;5316;49.538;8.352;2023-06-22T17:01:12;27.60;1.00
10536;DHT22;5316;49.538;8.352;2023-06-22T17:06:13;27.70;1.00
10536;DHT22;5316;49.538;8.352;2023-06-22T17:07:49;27.90;99.90
10536;DHT22;5316;49.538;8.352;2023-06-22T17:15:43;29.40;99.90
10536;DHT22;5316;49.538;8.352;2023-06-22T17:18:15;30.60;99.90
10536;DHT22;5316;49.538;8.352;2023-06-22T17:24:08;30.80;99.90
10536;DHT22;5316;49.538;8.352;2023-06-22T17:26:46;30.50;99.90
10536;DHT22;5316;49.538;8.352;2023-06-22T17:32:40;30.70;99.90
10536;DHT22;5316;49.538;8.352;2023-06-22T17:35:13;30.90;99.90
10536;DHT22;5316;49.538;8.352;2023-06-22T17:37:56;31.00;99.90
10536;DHT22;5316;49.538;8.352;2023-06-22T17:41:00;30.90;99.90
10536;DHT22;5316;49.538;8.352;2023-06-22T17:43:31;31.00;99.90
10536;DHT22;5316;49.538;8.352;2023-06-22T17:45:59;30.90;99.90
10536;DHT22;5316;49.538;8.352;2023-06-22T17:48:31;30.80;99.90
10536;DHT22;5316;49.538;8.352;2023-06-22T17:51:00;30.90;99.90
10536;DHT22;5316;49.538;8.352;2023-06-22T17:53:35;31.00;17.50
10536;DHT22;5316;49.538;8.352;2023-06-22T17:56:03;30.90;1.00
10536;DHT22;5316;49.538;8.352;2023-06-22T17:58:50;30.70;22.40
10536;DHT22;5316;49.538;8.352;2023-06-22T18:01:49;30.60;37.10
10536;DHT22;5316;49.538;8.352;2023-06-22T18:04:57;30.20;99.90
10536;DHT22;5316;49.538;8.352;2023-06-22T18:07:46;29.80;99.90
10536;DHT22;5316;49.538;8.352;2023-06-22T18:10:20;29.60;99.90
10536;DHT22;5316;49.538;8.352;2023-06-22T18:12:56;29.50;99.90
10536;DHT22;5316;49.538;8.352;2023-06-22T18:15:28;29.40;99.90
10536;DHT22;5316;49.538;8.352;2023-06-22T18:17:58;29.20;99.90
10536;DHT22;5316;49.538;8.352;2023-06-22T18:20:26;29.20;99.90
10536;DHT22;5316;49.538;8.352;2023-06-22T18:23:07;28.90;1.00
10536;DHT22;5316;49.538;8.352;2023-06-22T18:25:37;28.70;1.00
10536;DHT22;5316;49.538;8.352;2023-06-22T18:28:10;28.60;1.00
10536;DHT22;5316;49.538;8.352;2023-06-22T18:30:46;28.60;1.00
10536;DHT22;5316;49.538;8.352;2023-06-22T18:33:18;28.60;1.00
10536;DHT22;5316;49.538;8.352;2023-06-22T18:35:50;28.40;29.10
10536;DHT22;5316;49.538;8.352;2023-06-22T18:38:20;28.40;99.90
10536;DHT22;5316;49.538;8.352;2023-06-22T18:40:51;28.30;99.90
10536;DHT22;5316;49.538;8.352;2023-06-22T18:46:31;28.40;99.90
10536;DHT22;5316;49.538;8.352;2023-06-22T18:49:12;28.40;61.80
10536;DHT22;5316;49.538;8.352;2023-06-22T18:52:13;28.40;99.90
10536;DHT22;5316;49.538;8.352;2023-06-22T18:54:43;28.40;99.90
10536;DHT22;5316;49.538;8.352;2023-06-22T18:57:22;28.40;99.90
10536;DHT22;5316;49.538;8.352;2023-06-22T18:59:59;28.30;99.90
10536;DHT22;5316;49.538;8.352;2023-06-22T19:02:41;28.40;99.90
10536;DHT22;5316;49.538;8.352;2023-06-22T19:05:38;28.30;99.90
10536;DHT22;5316;49.538;8.352;2023-06-22T19:08:08;28.10;1.00
10536;DHT22;5316;49.538;8.352;2023-06-22T19:10:40;28.10;1.00
10536;DHT22;5316;49.538;8.352;2023-06-22T19:16:11;27.80;99.90
10536;DHT22;5316;49.538;8.352;2023-06-22T19:18:49;27.60;1.00
10536;DHT22;5316;49.538;8.352;2023-06-22T19:21:24;27.60;1.00
10536;DHT22;5316;49.538;8.352;2023-06-22T19:23:52;27.60;1.00
10536;DHT22;5316;49.538;8.352;2023-06-22T19:26:26;27.60;1.00
10536;DHT22;5316;49.538;8.352;2023-06-22T19:29:01;27.60;36.40
10536;DHT22;5316;49.538;8.352;2023-06-22T19:31:47;27.50;29.40
10536;DHT22;5316;49.538;8.352;2023-06-22T19:34:16;27.40;99.90
10536;DHT22;5316;49.538;8.352;2023-06-22T19:36:43;27.30;1.00
10536;DHT22;5316;49.538;8.352;2023-06-22T19:39:11;27.20;99.90
10536;DHT22;5316;49.538;8.352;2023-06-22T19:41:38;27.10;99.90
10536;DHT22;5316;49.538;8.352;2023-06-22T19:44:05;27.10;99.90
10536;DHT22;5316;49.538;8.352;2023-06-22T19:46:32;27.00;99.90
10536;DHT22;5316;49.538;8.352;2023-06-22T19:48:59;26.90;99.90
10536;DHT22;5316;49.538;8.352;2023-06-22T19:51:32;26.80;99.90
10536;DHT22;5316;49.538;8.352;2023-06-22T19:54:04;26.70;99.90
10536;DHT22;5316;49.538;8.352;2023-06-22T19:56:31;26.50;1.00
10536;DHT22;5316;49.538;8.352;2023-06-22T19:59:08;26.30;99.90
10536;DHT22;5316;49.538;8.352;2023-06-22T20:01:36;26.00;1.00
10536;DHT22;5316;49.538;8.352;2023-06-22T20:04:02;25.70;1.00
10536;DHT22;5316;49.538;8.352;2023-06-22T20:06:30;25.30;1.00
10536;DHT22;5316;49.538;8.352;2023-06-22T20:08:59;25.00;1.00
10536;DHT22;5316;49.538;8.352;2023-06-22T20:11:31;24.90;1.00
10536;DHT22;5316;49.538;8.352;2023-06-22T20:13:59;24.90;99.90
10536;DHT22;5316;49.538;8.352;2023-06-22T20:16:26;24.90;99.90
10536;DHT22;5316;49.538;8.352;2023-06-22T20:19:07;24.70;1.00
10536;DHT22;5316;49.538;8.352;2023-06-22T20:21:34;24.40;1.00
10536;DHT22;5316;49.538;8.352;2023-06-22T20:24:06;24.30;99.90
10536;DHT22;5316;49.538;8.352;2023-06-22T20:26:37;24.30;99.90
10536;DHT22;5316;49.538;8.352;2023-06-22T20:29:23;24.20;99.90
10536;DHT22;5316;49.538;8.352;2023-06-22T20:32:01;24.20;99.90
10536;DHT22;5316;49.538;8.352;2023-06-22T20:34:33;24.10;99.90
10536;DHT22;5316;49.538;8.352;2023-06-22T20:36:59;24.10;99.90
10536;DHT22;5316;49.538;8.352;2023-06-22T20:44:31;23.90;99.90
10536;DHT22;5316;49.538;8.352;2023-06-22T20:47:23;23.90;1.00
10536;DHT22;5316;49.538;8.352;2023-06-22T20:53:51;23.80;1.00
10536;DHT22;5316;49.538;8.352;2023-06-22T20:56:24;23.70;1.00
10536;DHT22;5316;49.538;8.352;2023-06-22T21:02:51;23.60;1.00
10536;DHT22;5316;49.538;8.352;2023-06-22T21:08:45;23.40;1.00
10536;DHT22;5316;49.538;8.352;2023-06-22T21:18:26;23.50;1.00
10536;DHT22;5316;49.538;8.352;2023-06-22T21:22:36;23.50;1.00
10536;DHT22;5316;49.538;8.352;2023-06-22T21:31:26;23.60;1.00
10536;DHT22;5316;49.538;8.352;2023-06-22T21:33:55;23.50;1.00
10536;DHT22;5316;49.538;8.352;2023-06-22T21:36:24;23.40;1.00
10536;DHT22;5316;49.538;8.352;2023-06-22T21:38:51;23.50;1.00
10536;DHT22;5316;49.538;8.352;2023-06-22T21:41:20;23.40;1.00
10536;DHT22;5316;49.538;8.352;2023-06-22T21:43:48;23.30;1.00
10536;DHT22;5316;49.538;8.352;2023-06-22T21:46:15;23.30;1.00
10536;DHT22;5316;49.538;8.352;2023-06-22T21:48:42;23.20;1.00
10536;DHT22;5316;49.538;8.352;2023-06-22T21:51:10;23.30;1.00
10536;DHT22;5316;49.538;8.352;2023-06-22T21:53:37;23.20;1.00
10536;DHT22;5316;49.538;8.352;2023-06-22T21:56:04;23.30;1.00
10536;DHT22;5316;49.538;8.352;2023-06-22T21:58:33;23.20;1.00
10536;DHT22;5316;49.538;8.352;2023-06-22T22:01:04;23.30;1.00
10536;DHT22;5316;49.538;8.352;2023-06-22T22:03:39;23.30;1.00
10536;DHT22;5316;49.538;8.352;2023-06-22T22:06:15;23.30;1.00
10536;DHT22;5316;49.538;8.352;2023-06-22T22:08:53;23.40;1.00
10536;DHT22;5316;49.538;8.352;2023-06-22T22:11:24;23.20;1.00
10536;DHT22;5316;49.538;8.352;2023-06-22T22:13:53;23.30;1.00
10536;DHT22;5316;49.538;8.352;2023-06-22T22:22:25;23.10;1.00
10536;DHT22;5316;49.538;8.352;2023-06-22T22:24:52;23.10;19.40
10536;DHT22;5316;49.538;8.352;2023-06-22T22:27:19;23.00;29.10
10536;DHT22;5316;49.538;8.352;2023-06-22T22:29:46;23.10;53.20
10536;DHT22;5316;49.538;8.352;2023-06-22T22:32:13;23.10;70.70
10536;DHT22;5316;49.538;8.352;2023-06-22T22:34:40;23.00;99.90
10536;DHT22;5316;49.538;8.352;2023-06-22T22:37:06;23.00;99.40
10536;DHT22;5316;49.538;8.352;2023-06-22T22:39:37;22.90;99.90
10536;DHT22;5316;49.538;8.352;2023-06-22T22:42:05;22.90;99.90
10536;DHT22;5316;49.538;8.352;2023-06-22T22:44:32;22.80;99.90
10536;DHT22;5316;49.538;8.352;2023-06-22T22:47:00;22.90;99.90
10536;DHT22;5316;49.538;8.352;2023-06-22T22:49:27;22.70;99.90
10536;DHT22;5316;49.538;8.352;2023-06-22T22:51:55;22.80;99.90
10536;DHT22;5316;49.538;8.352;2023-06-22T22:54:21;22.80;32.70
10536;DHT22;5316;49.538;8.352;2023-06-22T22:56:50;22.60;1.00
10536;DHT22;5316;49.538;8.352;2023-06-22T22:59:16;22.40;78.40
10536;DHT22;5316;49.538;8.352;2023-06-22T23:01:43;22.30;99.90
10536;DHT22;5316;49.538;8.352;2023-06-22T23:04:10;22.10;99.90
10536;DHT22;5316;49.538;8.352;2023-06-22T23:06:42;22.10;99.90
10536;DHT22;5316;49.538;8.352;2023-06-22T23:09:08;21.90;99.90
10536;DHT22;5316;49.538;8.352;2023-06-22T23:11:36;21.70;99.90
10536;DHT22;5316;49.538;8.352;2023-06-22T23:14:04;21.60;99.90
10536;DHT22;5316;49.538;8.352;2023-06-22T23:16:31;21.50;99.90
10536;DHT22;5316;49.538;8.352;2023-06-22T23:18:58;21.50;99.90
10536;DHT22;5316;49.538;8.352;2023-06-22T23:21:26;21.40;99.90
10536;DHT22;5316;49.538;8.352;2023-06-22T23:23:54;21.30;99.90
10536;DHT22;5316;49.538;8.352;2023-06-22T23:26:21;21.30;99.90
10536;DHT22;5316;49.538;8.352;2023-06-22T23:28:48;21.40;99.90
10536;DHT22;5316;49.538;8.352;2023-06-22T23:31:16;21.30;99.90
10536;DHT22;5316;49.538;8.352;2023-06-22T23:33:45;21.20;99.90
10536;DHT22;5316;49.538;8.352;2023-06-22T23:36:12;21.20;99.90
10536;DHT22;5316;49.538;8.352;2023-06-22T23:38:40;21.20;99.90
10536;DHT22;5316;49.538;8.352;2023-06-22T23:41:07;21.20;99.90
10536;DHT22;5316;49.538;8.352;2023-06-22T23:43:34;21.30;99.90
10536;DHT22;5316;49.538;8.352;2023-06-22T23:46:01;21.30;99.90
10536;DHT22;5316;49.538;8.352;2023-06-22T23:48:29;21.60;99.90
10536;DHT22;5316;49.538;8.352;2023-06-22T23:50:56;21.40;99.90
10536;DHT22;5316;49.538;8.352;2023-06-22T23:53:24;21.30;99.90
10536;DHT22;5316;49.538;8.352;2023-06-22T23:55:52;21.20;99.90
10536;DHT22;5316;49.538;8.352;2023-06-22T23:58:22;21.20;99.90
